sensor_id;sensor_type;location;lat;lon;timestamp;P1;durP1;ratioP1;P2;durP2;ratioP2
14665;SDS011;7420;53.574;10.040;2023-07-20T00:01:12;4.80;;;4.60;;
14665;SDS011;7420;53.574;10.040;2023-07-20T00:03:38;4.68;;;4.47;;
14665;SDS011;7420;53.574;10.040;2023-07-20T00:06:04;4.63;;;4.43;;
14665;SDS011;7420;53.574;10.040;2023-07-20T00:08:30;4.95;;;4.75;;
14665;SDS011;7420;53.574;10.040;2023-07-20T00:10:56;4.90;;;4.70;;
14665;SDS011;7420;53.574;10.040;2023-07-20T00:13:21;4.55;;;4.35;;
14665;SDS011;7420;53.574;10.040;2023-07-20T00:15:47;4.97;;;4.78;;
14665;SDS011;7420;53.574;10.040;2023-07-20T00:18:13;4.70;;;4.50;;
14665;SDS011;7420;53.574;10.040;2023-07-20T00:20:39;4.75;;;4.55;;
14665;SDS011;7420;53.574;10.040;2023-07-20T00:23:05;5.05;;;4.85;;
14665;SDS011;7420;53.574;10.040;2023-07-20T00:25:31;4.85;;;4.65;;
14665;SDS011;7420;53.574;10.040;2023-07-20T00:27:57;4.60;;;4.40;;
14665;SDS011;7420;53.574;10.040;2023-07-20T00:30:22;4.60;;;4.40;;
14665;SDS011;7420;53.574;10.040;2023-07-20T00:32:48;4.85;;;4.65;;
14665;SDS011;7420;53.574;10.040;2023-07-20T00:35:13;4.90;;;4.70;;
14665;SDS011;7420;53.574;10.040;2023-07-20T00:37:39;4.50;;;4.30;;
14665;SDS011;7420;53.574;10.040;2023-07-20T00:40:05;4.95;;;4.75;;
14665;SDS011;7420;53.574;10.040;2023-07-20T00:42:32;4.78;;;4.57;;
14665;SDS011;7420;53.574;10.040;2023-07-20T00:44:58;4.97;;;4.78;;
14665;SDS011;7420;53.574;10.040;2023-07-20T00:47:24;4.80;;;4.60;;
14665;SDS011;7420;53.574;10.040;2023-07-20T00:49:50;4.85;;;4.65;;
14665;SDS011;7420;53.574;10.040;2023-07-20T00:52:17;4.70;;;4.50;;
14665;SDS011;7420;53.574;10.040;2023-07-20T00:54:45;4.50;;;4.30;;
14665;SDS011;7420;53.574;10.040;2023-07-20T00:57:13;4.47;;;4.28;;
14665;SDS011;7420;53.574;10.040;2023-07-20T00:59:39;4.72;;;4.53;;
14665;SDS011;7420;53.574;10.040;2023-07-20T01:02:05;4.60;;;4.40;;
14665;SDS011;7420;53.574;10.040;2023-07-20T01:04:31;5.00;;;4.80;;
14665;SDS011;7420;53.574;10.040;2023-07-20T01:06:58;4.80;;;4.60;;
14665;SDS011;7420;53.574;10.040;2023-07-20T01:09:38;4.80;;;4.60;;
14665;SDS011;7420;53.574;10.040;2023-07-20T01:12:14;4.70;;;4.50;;
14665;SDS011;7420;53.574;10.040;2023-07-20T01:14:50;4.60;;;4.40;;
14665;SDS011;7420;53.574;10.040;2023-07-20T01:17:16;4.70;;;4.50;;
14665;SDS011;7420;53.574;10.040;2023-07-20T01:19:42;4.55;;;4.35;;
14665;SDS011;7420;53.574;10.040;2023-07-20T01:32:55;4.70;;;4.50;;
14665;SDS011;7420;53.574;10.040;2023-07-20T01:35:23;4.75;;;4.55;;
14665;SDS011;7420;53.574;10.040;2023-07-20T01:37:53;4.80;;;4.60;;
14665;SDS011;7420;53.574;10.040;2023-07-20T01:40:20;4.88;;;4.68;;
14665;SDS011;7420;53.574;10.040;2023-07-20T01:42:48;5.18;;;4.97;;
14665;SDS011;7420;53.574;10.040;2023-07-20T01:45:14;4.90;;;4.70;;
14665;SDS011;7420;53.574;10.040;2023-07-20T01:47:39;4.85;;;4.65;;
14665;SDS011;7420;53.574;10.040;2023-07-20T01:50:05;4.70;;;4.50;;
14665;SDS011;7420;53.574;10.040;2023-07-20T01:52:31;4.88;;;4.68;;
14665;SDS011;7420;53.574;10.040;2023-07-20T01:54:57;5.10;;;4.90;;
14665;SDS011;7420;53.574;10.040;2023-07-20T01:57:23;4.60;;;4.40;;
14665;SDS011;7420;53.574;10.040;2023-07-20T01:59:49;4.70;;;4.50;;
14665;SDS011;7420;53.574;10.040;2023-07-20T02:02:14;4.72;;;4.53;;
14665;SDS011;7420;53.574;10.040;2023-07-20T02:04:39;4.90;;;4.70;;
14665;SDS011;7420;53.574;10.040;2023-07-20T02:07:05;5.03;;;4.82;;
14665;SDS011;7420;53.574;10.040;2023-07-20T02:09:30;4.80;;;4.60;;
14665;SDS011;7420;53.574;10.040;2023-07-20T02:11:57;4.50;;;4.30;;
14665;SDS011;7420;53.574;10.040;2023-07-20T02:14:23;4.65;;;4.45;;
14665;SDS011;7420;53.574;10.040;2023-07-20T02:16:48;4.70;;;4.50;;
14665;SDS011;7420;53.574;10.040;2023-07-20T02:19:19;5.38;;;5.18;;
14665;SDS011;7420;53.574;10.040;2023-07-20T02:21:44;4.70;;;4.50;;
14665;SDS011;7420;53.574;10.040;2023-07-20T02:24:11;5.07;;;4.88;;
14665;SDS011;7420;53.574;10.040;2023-07-20T02:26:38;4.85;;;4.65;;
14665;SDS011;7420;53.574;10.040;2023-07-20T02:29:03;4.70;;;4.50;;
14665;SDS011;7420;53.574;10.040;2023-07-20T02:31:30;5.30;;;5.10;;
14665;SDS011;7420;53.574;10.040;2023-07-20T02:33:55;4.88;;;4.68;;
14665;SDS011;7420;53.574;10.040;2023-07-20T02:36:21;4.55;;;4.35;;
14665;SDS011;7420;53.574;10.040;2023-07-20T02:38:47;4.90;;;4.70;;
14665;SDS011;7420;53.574;10.040;2023-07-20T02:41:13;4.95;;;4.75;;
14665;SDS011;7420;53.574;10.040;2023-07-20T02:43:38;4.60;;;4.40;;
14665;SDS011;7420;53.574;10.040;2023-07-20T02:46:04;4.70;;;4.50;;
14665;SDS011;7420;53.574;10.040;2023-07-20T02:48:29;4.70;;;4.50;;
14665;SDS011;7420;53.574;10.040;2023-07-20T02:50:55;4.80;;;4.60;;
14665;SDS011;7420;53.574;10.040;2023-07-20T02:53:21;5.10;;;4.90;;
14665;SDS011;7420;53.574;10.040;2023-07-20T02:55:46;4.93;;;4.72;;
14665;SDS011;7420;53.574;10.040;2023-07-20T02:58:12;4.70;;;4.50;;
14665;SDS011;7420;53.574;10.040;2023-07-20T03:00:38;5.00;;;4.80;;
14665;SDS011;7420;53.574;10.040;2023-07-20T03:03:03;4.80;;;4.60;;
14665;SDS011;7420;53.574;10.040;2023-07-20T03:05:29;4.70;;;4.50;;
14665;SDS011;7420;53.574;10.040;2023-07-20T03:07:55;4.63;;;4.43;;
14665;SDS011;7420;53.574;10.040;2023-07-20T03:10:21;4.93;;;4.72;;
14665;SDS011;7420;53.574;10.040;2023-07-20T03:12:46;4.80;;;4.60;;
14665;SDS011;7420;53.574;10.040;2023-07-20T03:15:12;4.80;;;4.60;;
14665;SDS011;7420;53.574;10.040;2023-07-20T03:17:37;4.80;;;4.60;;
14665;SDS011;7420;53.574;10.040;2023-07-20T03:20:03;4.80;;;4.60;;
14665;SDS011;7420;53.574;10.040;2023-07-20T03:22:34;4.60;;;4.40;;
14665;SDS011;7420;53.574;10.040;2023-07-20T03:24:59;4.80;;;4.60;;
14665;SDS011;7420;53.574;10.040;2023-07-20T03:27:25;4.80;;;4.60;;
14665;SDS011;7420;53.574;10.040;2023-07-20T03:29:51;5.25;;;5.05;;
14665;SDS011;7420;53.574;10.040;2023-07-20T03:32:16;4.70;;;4.50;;
14665;SDS011;7420;53.574;10.040;2023-07-20T03:34:42;5.15;;;4.95;;
14665;SDS011;7420;53.574;10.040;2023-07-20T03:37:09;5.05;;;4.85;;
14665;SDS011;7420;53.574;10.040;2023-07-20T03:39:34;4.80;;;4.60;;
14665;SDS011;7420;53.574;10.040;2023-07-20T03:42:00;4.78;;;4.57;;
14665;SDS011;7420;53.574;10.040;2023-07-20T03:44:26;5.38;;;5.18;;
14665;SDS011;7420;53.574;10.040;2023-07-20T03:46:55;4.90;;;4.70;;
14665;SDS011;7420;53.574;10.040;2023-07-20T03:49:20;4.70;;;4.50;;
14665;SDS011;7420;53.574;10.040;2023-07-20T03:51:46;4.70;;;4.50;;
14665;SDS011;7420;53.574;10.040;2023-07-20T03:54:11;4.90;;;4.70;;
14665;SDS011;7420;53.574;10.040;2023-07-20T03:56:37;4.70;;;4.50;;
14665;SDS011;7420;53.574;10.040;2023-07-20T03:59:02;4.90;;;4.70;;
14665;SDS011;7420;53.574;10.040;2023-07-20T04:01:28;4.80;;;4.60;;
14665;SDS011;7420;53.574;10.040;2023-07-20T04:03:54;5.10;;;4.90;;
14665;SDS011;7420;53.574;10.040;2023-07-20T04:06:20;5.10;;;4.90;;
14665;SDS011;7420;53.574;10.040;2023-07-20T04:08:46;4.80;;;4.60;;
14665;SDS011;7420;53.574;10.040;2023-07-20T04:11:14;5.07;;;4.88;;
14665;SDS011;7420;53.574;10.040;2023-07-20T04:13:40;4.70;;;4.50;;
14665;SDS011;7420;53.574;10.040;2023-07-20T04:16:06;4.80;;;4.60;;
14665;SDS011;7420;53.574;10.040;2023-07-20T04:18:32;4.65;;;4.45;;
14665;SDS011;7420;53.574;10.040;2023-07-20T04:20:57;5.20;;;5.00;;
14665;SDS011;7420;53.574;10.040;2023-07-20T04:23:23;4.80;;;4.60;;
14665;SDS011;7420;53.574;10.040;2023-07-20T04:25:48;4.78;;;4.57;;
14665;SDS011;7420;53.574;10.040;2023-07-20T04:28:14;4.85;;;4.65;;
14665;SDS011;7420;53.574;10.040;2023-07-20T04:30:40;4.93;;;4.72;;
14665;SDS011;7420;53.574;10.040;2023-07-20T04:33:05;4.82;;;4.63;;
14665;SDS011;7420;53.574;10.040;2023-07-20T04:35:50;4.80;;;4.60;;
14665;SDS011;7420;53.574;10.040;2023-07-20T04:38:17;4.90;;;4.70;;
14665;SDS011;7420;53.574;10.040;2023-07-20T04:40:44;4.80;;;4.60;;
14665;SDS011;7420;53.574;10.040;2023-07-20T04:43:13;4.80;;;4.60;;
14665;SDS011;7420;53.574;10.040;2023-07-20T04:45:40;4.80;;;4.60;;
14665;SDS011;7420;53.574;10.040;2023-07-20T04:48:09;4.95;;;4.75;;
14665;SDS011;7420;53.574;10.040;2023-07-20T04:50:37;4.70;;;4.50;;
14665;SDS011;7420;53.574;10.040;2023-07-20T04:53:03;4.78;;;4.57;;
14665;SDS011;7420;53.574;10.040;2023-07-20T04:55:29;5.03;;;4.82;;
14665;SDS011;7420;53.574;10.040;2023-07-20T04:57:54;4.97;;;4.78;;
14665;SDS011;7420;53.574;10.040;2023-07-20T05:00:20;4.85;;;4.65;;
14665;SDS011;7420;53.574;10.040;2023-07-20T05:02:46;4.90;;;4.70;;
14665;SDS011;7420;53.574;10.040;2023-07-20T05:05:14;4.90;;;4.70;;
14665;SDS011;7420;53.574;10.040;2023-07-20T05:07:40;4.80;;;4.60;;
14665;SDS011;7420;53.574;10.040;2023-07-20T05:10:05;4.80;;;4.60;;
14665;SDS011;7420;53.574;10.040;2023-07-20T05:12:32;4.90;;;4.70;;
14665;SDS011;7420;53.574;10.040;2023-07-20T05:14:57;4.60;;;4.40;;
14665;SDS011;7420;53.574;10.040;2023-07-20T05:17:23;4.80;;;4.60;;
14665;SDS011;7420;53.574;10.040;2023-07-20T05:19:49;5.15;;;4.95;;
14665;SDS011;7420;53.574;10.040;2023-07-20T05:22:16;4.90;;;4.70;;
14665;SDS011;7420;53.574;10.040;2023-07-20T05:24:41;4.80;;;4.60;;
14665;SDS011;7420;53.574;10.040;2023-07-20T05:27:07;4.80;;;4.60;;
14665;SDS011;7420;53.574;10.040;2023-07-20T05:29:33;4.80;;;4.60;;
14665;SDS011;7420;53.574;10.040;2023-07-20T05:31:58;4.97;;;4.78;;
14665;SDS011;7420;53.574;10.040;2023-07-20T05:34:28;4.90;;;4.70;;
14665;SDS011;7420;53.574;10.040;2023-07-20T05:36:54;4.80;;;4.60;;
14665;SDS011;7420;53.574;10.040;2023-07-20T05:39:20;4.70;;;4.50;;
14665;SDS011;7420;53.574;10.040;2023-07-20T05:41:46;4.80;;;4.60;;
14665;SDS011;7420;53.574;10.040;2023-07-20T05:44:12;4.70;;;4.50;;
14665;SDS011;7420;53.574;10.040;2023-07-20T05:46:37;4.70;;;4.50;;
14665;SDS011;7420;53.574;10.040;2023-07-20T05:49:09;4.60;;;4.40;;
14665;SDS011;7420;53.574;10.040;2023-07-20T05:51:37;4.70;;;4.50;;
14665;SDS011;7420;53.574;10.040;2023-07-20T05:54:03;5.00;;;4.80;;
14665;SDS011;7420;53.574;10.040;2023-07-20T05:56:28;4.90;;;4.70;;
14665;SDS011;7420;53.574;10.040;2023-07-20T05:58:54;4.70;;;4.50;;
14665;SDS011;7420;53.574;10.040;2023-07-20T06:01:20;4.63;;;4.43;;
14665;SDS011;7420;53.574;10.040;2023-07-20T06:03:45;4.68;;;4.47;;
14665;SDS011;7420;53.574;10.040;2023-07-20T06:06:10;4.70;;;4.50;;
14665;SDS011;7420;53.574;10.040;2023-07-20T06:08:37;4.63;;;4.43;;
14665;SDS011;7420;53.574;10.040;2023-07-20T06:11:02;4.85;;;4.65;;
14665;SDS011;7420;53.574;10.040;2023-07-20T06:13:28;4.60;;;4.40;;
14665;SDS011;7420;53.574;10.040;2023-07-20T06:15:54;4.50;;;4.30;;
14665;SDS011;7420;53.574;10.040;2023-07-20T06:18:21;4.60;;;4.40;;
14665;SDS011;7420;53.574;10.040;2023-07-20T06:20:52;4.60;;;4.40;;
14665;SDS011;7420;53.574;10.040;2023-07-20T06:23:18;4.60;;;4.40;;
14665;SDS011;7420;53.574;10.040;2023-07-20T06:25:44;4.50;;;4.30;;
14665;SDS011;7420;53.574;10.040;2023-07-20T06:28:09;4.30;;;4.10;;
14665;SDS011;7420;53.574;10.040;2023-07-20T06:30:35;4.40;;;4.20;;
14665;SDS011;7420;53.574;10.040;2023-07-20T06:33:01;4.60;;;4.40;;
14665;SDS011;7420;53.574;10.040;2023-07-20T06:35:26;4.40;;;4.20;;
14665;SDS011;7420;53.574;10.040;2023-07-20T06:37:52;4.65;;;4.45;;
14665;SDS011;7420;53.574;10.040;2023-07-20T06:40:17;4.50;;;4.30;;
14665;SDS011;7420;53.574;10.040;2023-07-20T06:42:43;4.50;;;4.30;;
14665;SDS011;7420;53.574;10.040;2023-07-20T06:45:09;4.50;;;4.30;;
14665;SDS011;7420;53.574;10.040;2023-07-20T06:47:35;4.50;;;4.30;;
14665;SDS011;7420;53.574;10.040;2023-07-20T06:50:03;4.40;;;4.20;;
14665;SDS011;7420;53.574;10.040;2023-07-20T06:52:29;4.45;;;4.25;;
14665;SDS011;7420;53.574;10.040;2023-07-20T06:54:54;4.30;;;4.10;;
14665;SDS011;7420;53.574;10.040;2023-07-20T06:57:20;4.40;;;4.20;;
14665;SDS011;7420;53.574;10.040;2023-07-20T06:59:45;4.78;;;4.57;;
14665;SDS011;7420;53.574;10.040;2023-07-20T07:02:11;4.40;;;4.20;;
14665;SDS011;7420;53.574;10.040;2023-07-20T07:04:36;4.75;;;4.55;;
14665;SDS011;7420;53.574;10.040;2023-07-20T07:07:01;4.50;;;4.30;;
14665;SDS011;7420;53.574;10.040;2023-07-20T07:09:30;4.60;;;4.40;;
14665;SDS011;7420;53.574;10.040;2023-07-20T07:11:56;4.95;;;4.75;;
14665;SDS011;7420;53.574;10.040;2023-07-20T07:14:22;4.60;;;4.40;;
14665;SDS011;7420;53.574;10.040;2023-07-20T07:16:47;4.40;;;4.20;;
14665;SDS011;7420;53.574;10.040;2023-07-20T07:19:13;4.70;;;4.50;;
14665;SDS011;7420;53.574;10.040;2023-07-20T07:21:38;4.38;;;4.18;;
14665;SDS011;7420;53.574;10.040;2023-07-20T07:24:04;4.40;;;4.20;;
14665;SDS011;7420;53.574;10.040;2023-07-20T07:26:32;4.30;;;4.10;;
14665;SDS011;7420;53.574;10.040;2023-07-20T07:28:57;4.68;;;4.47;;
14665;SDS011;7420;53.574;10.040;2023-07-20T07:31:24;4.50;;;4.30;;
14665;SDS011;7420;53.574;10.040;2023-07-20T07:33:50;4.40;;;4.20;;
14665;SDS011;7420;53.574;10.040;2023-07-20T07:36:16;4.72;;;4.53;;
14665;SDS011;7420;53.574;10.040;2023-07-20T07:38:42;4.50;;;4.30;;
14665;SDS011;7420;53.574;10.040;2023-07-20T07:41:08;4.50;;;4.30;;
14665;SDS011;7420;53.574;10.040;2023-07-20T07:43:33;4.40;;;4.20;;
14665;SDS011;7420;53.574;10.040;2023-07-20T07:46:00;4.47;;;4.28;;
14665;SDS011;7420;53.574;10.040;2023-07-20T07:48:26;4.65;;;4.45;;
14665;SDS011;7420;53.574;10.040;2023-07-20T07:50:53;4.50;;;4.30;;
14665;SDS011;7420;53.574;10.040;2023-07-20T07:53:19;4.60;;;4.40;;
14665;SDS011;7420;53.574;10.040;2023-07-20T07:55:45;4.45;;;4.25;;
14665;SDS011;7420;53.574;10.040;2023-07-20T07:58:12;4.70;;;4.50;;
14665;SDS011;7420;53.574;10.040;2023-07-20T08:00:38;4.85;;;4.65;;
14665;SDS011;7420;53.574;10.040;2023-07-20T08:03:05;4.60;;;4.40;;
14665;SDS011;7420;53.574;10.040;2023-07-20T08:05:31;4.65;;;4.45;;
14665;SDS011;7420;53.574;10.040;2023-07-20T08:07:57;4.50;;;4.30;;
14665;SDS011;7420;53.574;10.040;2023-07-20T08:10:22;4.50;;;4.30;;
14665;SDS011;7420;53.574;10.040;2023-07-20T08:12:48;4.40;;;4.20;;
14665;SDS011;7420;53.574;10.040;2023-07-20T08:15:13;4.50;;;4.30;;
14665;SDS011;7420;53.574;10.040;2023-07-20T08:17:40;4.50;;;4.30;;
14665;SDS011;7420;53.574;10.040;2023-07-20T08:20:07;4.32;;;4.13;;
14665;SDS011;7420;53.574;10.040;2023-07-20T08:22:36;4.80;;;4.60;;
14665;SDS011;7420;53.574;10.040;2023-07-20T08:25:01;4.50;;;4.30;;
14665;SDS011;7420;53.574;10.040;2023-07-20T08:27:26;4.40;;;4.20;;
14665;SDS011;7420;53.574;10.040;2023-07-20T08:29:52;4.30;;;4.10;;
14665;SDS011;7420;53.574;10.040;2023-07-20T08:32:17;4.40;;;4.20;;
14665;SDS011;7420;53.574;10.040;2023-07-20T08:34:43;4.72;;;4.53;;
14665;SDS011;7420;53.574;10.040;2023-07-20T08:37:08;4.30;;;4.10;;
14665;SDS011;7420;53.574;10.040;2023-07-20T08:39:35;4.30;;;4.10;;
14665;SDS011;7420;53.574;10.040;2023-07-20T08:42:01;4.20;;;4.00;;
14665;SDS011;7420;53.574;10.040;2023-07-20T08:44:29;4.30;;;4.10;;
14665;SDS011;7420;53.574;10.040;2023-07-20T08:46:55;4.45;;;4.25;;
14665;SDS011;7420;53.574;10.040;2023-07-20T08:49:22;4.20;;;4.00;;
14665;SDS011;7420;53.574;10.040;2023-07-20T08:51:48;4.40;;;4.20;;
14665;SDS011;7420;53.574;10.040;2023-07-20T08:54:14;4.40;;;4.20;;
14665;SDS011;7420;53.574;10.040;2023-07-20T08:56:40;4.50;;;4.30;;
14665;SDS011;7420;53.574;10.040;2023-07-20T08:59:08;4.30;;;4.10;;
14665;SDS011;7420;53.574;10.040;2023-07-20T09:01:33;4.60;;;4.40;;
14665;SDS011;7420;53.574;10.040;2023-07-20T09:04:01;4.57;;;4.38;;
14665;SDS011;7420;53.574;10.040;2023-07-20T09:06:27;4.70;;;4.50;;
14665;SDS011;7420;53.574;10.040;2023-07-20T09:08:52;4.60;;;4.40;;
14665;SDS011;7420;53.574;10.040;2023-07-20T09:11:17;4.60;;;4.40;;
14665;SDS011;7420;53.574;10.040;2023-07-20T09:13:43;4.60;;;4.40;;
14665;SDS011;7420;53.574;10.040;2023-07-20T09:16:08;4.80;;;4.60;;
14665;SDS011;7420;53.574;10.040;2023-07-20T09:18:38;4.30;;;4.10;;
14665;SDS011;7420;53.574;10.040;2023-07-20T09:21:04;4.70;;;4.50;;
14665;SDS011;7420;53.574;10.040;2023-07-20T09:23:37;4.38;;;4.18;;
14665;SDS011;7420;53.574;10.040;2023-07-20T09:26:10;4.60;;;4.40;;
14665;SDS011;7420;53.574;10.040;2023-07-20T09:28:42;4.60;;;4.40;;
14665;SDS011;7420;53.574;10.040;2023-07-20T09:31:15;4.40;;;4.20;;
14665;SDS011;7420;53.574;10.040;2023-07-20T09:33:45;4.40;;;4.20;;
14665;SDS011;7420;53.574;10.040;2023-07-20T09:36:12;4.50;;;4.30;;
14665;SDS011;7420;53.574;10.040;2023-07-20T09:38:41;4.40;;;4.20;;
14665;SDS011;7420;53.574;10.040;2023-07-20T09:41:07;4.50;;;4.30;;
14665;SDS011;7420;53.574;10.040;2023-07-20T09:43:34;4.40;;;4.20;;
14665;SDS011;7420;53.574;10.040;2023-07-20T09:45:59;4.65;;;4.45;;
14665;SDS011;7420;53.574;10.040;2023-07-20T09:48:25;4.80;;;4.60;;
14665;SDS011;7420;53.574;10.040;2023-07-20T09:50:53;4.40;;;4.20;;
14665;SDS011;7420;53.574;10.040;2023-07-20T09:53:20;4.60;;;4.40;;
14665;SDS011;7420;53.574;10.040;2023-07-20T09:55:46;4.68;;;4.47;;
14665;SDS011;7420;53.574;10.040;2023-07-20T09:58:12;4.40;;;4.20;;
14665;SDS011;7420;53.574;10.040;2023-07-20T10:00:39;4.50;;;4.30;;
14665;SDS011;7420;53.574;10.040;2023-07-20T10:03:10;4.50;;;4.30;;
14665;SDS011;7420;53.574;10.040;2023-07-20T10:05:39;4.40;;;4.20;;
14665;SDS011;7420;53.574;10.040;2023-07-20T10:08:09;4.40;;;4.20;;
14665;SDS011;7420;53.574;10.040;2023-07-20T10:10:36;4.45;;;4.25;;
14665;SDS011;7420;53.574;10.040;2023-07-20T10:13:05;4.40;;;4.20;;
14665;SDS011;7420;53.574;10.040;2023-07-20T10:15:43;4.32;;;4.13;;
14665;SDS011;7420;53.574;10.040;2023-07-20T10:18:22;4.45;;;4.25;;
14665;SDS011;7420;53.574;10.040;2023-07-20T10:20:59;4.27;;;4.07;;
14665;SDS011;7420;53.574;10.040;2023-07-20T10:23:26;4.30;;;4.10;;
14665;SDS011;7420;53.574;10.040;2023-07-20T10:25:54;4.28;;;4.07;;
14665;SDS011;7420;53.574;10.040;2023-07-20T10:28:20;4.10;;;4.00;;
14665;SDS011;7420;53.574;10.040;2023-07-20T10:30:48;4.40;;;4.20;;
14665;SDS011;7420;53.574;10.040;2023-07-20T10:33:15;4.20;;;4.00;;
14665;SDS011;7420;53.574;10.040;2023-07-20T10:35:55;4.20;;;4.00;;
14665;SDS011;7420;53.574;10.040;2023-07-20T10:44:06;4.43;;;4.22;;
14665;SDS011;7420;53.574;10.040;2023-07-20T10:49:08;4.30;;;4.10;;
14665;SDS011;7420;53.574;10.040;2023-07-20T10:56:40;4.00;;;3.90;;
14665;SDS011;7420;53.574;10.040;2023-07-20T10:59:16;4.50;;;4.30;;
14665;SDS011;7420;53.574;10.040;2023-07-20T11:01:46;4.30;;;4.10;;
14665;SDS011;7420;53.574;10.040;2023-07-20T11:04:12;4.40;;;4.20;;
14665;SDS011;7420;53.574;10.040;2023-07-20T11:06:38;4.43;;;4.22;;
14665;SDS011;7420;53.574;10.040;2023-07-20T11:09:11;4.40;;;4.20;;
14665;SDS011;7420;53.574;10.040;2023-07-20T11:11:43;4.35;;;4.15;;
14665;SDS011;7420;53.574;10.040;2023-07-20T11:14:23;4.40;;;4.20;;
14665;SDS011;7420;53.574;10.040;2023-07-20T11:16:50;4.30;;;4.10;;
14665;SDS011;7420;53.574;10.040;2023-07-20T11:21:58;4.40;;;4.20;;
14665;SDS011;7420;53.574;10.040;2023-07-20T11:24:24;4.40;;;4.20;;
14665;SDS011;7420;53.574;10.040;2023-07-20T11:26:50;4.40;;;4.20;;
14665;SDS011;7420;53.574;10.040;2023-07-20T11:29:22;4.50;;;4.30;;
14665;SDS011;7420;53.574;10.040;2023-07-20T11:31:48;4.30;;;4.10;;
14665;SDS011;7420;53.574;10.040;2023-07-20T11:36:44;4.20;;;4.00;;
14665;SDS011;7420;53.574;10.040;2023-07-20T11:39:11;4.20;;;4.00;;
14665;SDS011;7420;53.574;10.040;2023-07-20T11:41:38;4.40;;;4.20;;
14665;SDS011;7420;53.574;10.040;2023-07-20T11:44:08;4.28;;;4.07;;
14665;SDS011;7420;53.574;10.040;2023-07-20T11:46:38;4.20;;;4.00;;
14665;SDS011;7420;53.574;10.040;2023-07-20T11:49:04;4.32;;;4.13;;
14665;SDS011;7420;53.574;10.040;2023-07-20T11:51:30;4.50;;;4.30;;
14665;SDS011;7420;53.574;10.040;2023-07-20T11:53:57;4.40;;;4.20;;
14665;SDS011;7420;53.574;10.040;2023-07-20T11:56:25;4.40;;;4.20;;
14665;SDS011;7420;53.574;10.040;2023-07-20T11:58:54;4.30;;;4.10;;
14665;SDS011;7420;53.574;10.040;2023-07-20T12:01:21;4.00;;;3.90;;
14665;SDS011;7420;53.574;10.040;2023-07-20T12:03:48;4.20;;;4.00;;
14665;SDS011;7420;53.574;10.040;2023-07-20T12:06:15;4.00;;;3.90;;
14665;SDS011;7420;53.574;10.040;2023-07-20T12:08:44;4.10;;;4.00;;
14665;SDS011;7420;53.574;10.040;2023-07-20T12:11:09;4.00;;;3.90;;
14665;SDS011;7420;53.574;10.040;2023-07-20T12:13:44;4.00;;;3.90;;
14665;SDS011;7420;53.574;10.040;2023-07-20T12:16:10;4.10;;;3.97;;
14665;SDS011;7420;53.574;10.040;2023-07-20T12:18:38;3.90;;;3.80;;
14665;SDS011;7420;53.574;10.040;2023-07-20T12:21:05;4.28;;;4.07;;
14665;SDS011;7420;53.574;10.040;2023-07-20T12:23:38;4.13;;;4.00;;
14665;SDS011;7420;53.574;10.040;2023-07-20T12:26:08;4.20;;;4.00;;
14665;SDS011;7420;53.574;10.040;2023-07-20T12:28:40;4.30;;;4.10;;
14665;SDS011;7420;53.574;10.040;2023-07-20T12:31:07;4.20;;;4.00;;
14665;SDS011;7420;53.574;10.040;2023-07-20T12:33:34;4.30;;;4.10;;
14665;SDS011;7420;53.574;10.040;2023-07-20T12:36:01;4.30;;;4.10;;
14665;SDS011;7420;53.574;10.040;2023-07-20T12:38:26;4.30;;;4.10;;
14665;SDS011;7420;53.574;10.040;2023-07-20T12:40:53;4.40;;;4.20;;
14665;SDS011;7420;53.574;10.040;2023-07-20T12:43:20;4.20;;;4.00;;
14665;SDS011;7420;53.574;10.040;2023-07-20T12:45:46;4.20;;;4.00;;
14665;SDS011;7420;53.574;10.040;2023-07-20T12:48:12;4.20;;;4.00;;
14665;SDS011;7420;53.574;10.040;2023-07-20T12:50:37;4.40;;;4.20;;
14665;SDS011;7420;53.574;10.040;2023-07-20T12:53:03;4.15;;;4.05;;
14665;SDS011;7420;53.574;10.040;2023-07-20T12:55:28;4.20;;;4.00;;
14665;SDS011;7420;53.574;10.040;2023-07-20T12:57:54;4.00;;;3.90;;
14665;SDS011;7420;53.574;10.040;2023-07-20T13:00:20;4.20;;;4.00;;
14665;SDS011;7420;53.574;10.040;2023-07-20T13:02:48;4.22;;;4.03;;
14665;SDS011;7420;53.574;10.040;2023-07-20T13:05:13;4.20;;;4.00;;
14665;SDS011;7420;53.574;10.040;2023-07-20T13:07:40;3.97;;;3.88;;
14665;SDS011;7420;53.574;10.040;2023-07-20T13:10:07;4.00;;;3.90;;
14665;SDS011;7420;53.574;10.040;2023-07-20T13:12:34;3.83;;;3.72;;
14665;SDS011;7420;53.574;10.040;2023-07-20T13:15:01;3.80;;;3.70;;
14665;SDS011;7420;53.574;10.040;2023-07-20T13:17:31;3.90;;;3.80;;
14665;SDS011;7420;53.574;10.040;2023-07-20T13:19:57;3.90;;;3.80;;
14665;SDS011;7420;53.574;10.040;2023-07-20T13:22:23;4.00;;;3.90;;
14665;SDS011;7420;53.574;10.040;2023-07-20T13:24:48;3.80;;;3.70;;
14665;SDS011;7420;53.574;10.040;2023-07-20T13:27:17;3.85;;;3.75;;
14665;SDS011;7420;53.574;10.040;2023-07-20T13:29:43;3.70;;;3.60;;
14665;SDS011;7420;53.574;10.040;2023-07-20T13:32:08;4.20;;;4.00;;
14665;SDS011;7420;53.574;10.040;2023-07-20T13:34:34;4.00;;;3.90;;
14665;SDS011;7420;53.574;10.040;2023-07-20T13:37:00;3.90;;;3.80;;
14665;SDS011;7420;53.574;10.040;2023-07-20T13:39:26;3.95;;;3.85;;
14665;SDS011;7420;53.574;10.040;2023-07-20T13:41:54;3.90;;;3.80;;
14665;SDS011;7420;53.574;10.040;2023-07-20T13:44:20;4.00;;;3.90;;
14665;SDS011;7420;53.574;10.040;2023-07-20T13:46:46;3.97;;;3.88;;
14665;SDS011;7420;53.574;10.040;2023-07-20T13:49:12;3.60;;;3.50;;
14665;SDS011;7420;53.574;10.040;2023-07-20T13:51:39;3.83;;;3.72;;
14665;SDS011;7420;53.574;10.040;2023-07-20T13:54:05;3.90;;;3.80;;
14665;SDS011;7420;53.574;10.040;2023-07-20T13:56:31;4.00;;;3.90;;
14665;SDS011;7420;53.574;10.040;2023-07-20T13:58:56;3.70;;;3.60;;
14665;SDS011;7420;53.574;10.040;2023-07-20T14:01:22;4.05;;;3.90;;
14665;SDS011;7420;53.574;10.040;2023-07-20T14:03:49;3.90;;;3.80;;
14665;SDS011;7420;53.574;10.040;2023-07-20T14:06:15;3.80;;;3.70;;
14665;SDS011;7420;53.574;10.040;2023-07-20T14:08:41;3.70;;;3.60;;
14665;SDS011;7420;53.574;10.040;2023-07-20T14:11:07;3.60;;;3.50;;
14665;SDS011;7420;53.574;10.040;2023-07-20T14:13:32;3.70;;;3.60;;
14665;SDS011;7420;53.574;10.040;2023-07-20T14:15:58;3.70;;;3.60;;
14665;SDS011;7420;53.574;10.040;2023-07-20T14:18:24;3.60;;;3.50;;
14665;SDS011;7420;53.574;10.040;2023-07-20T14:20:49;3.60;;;3.50;;
14665;SDS011;7420;53.574;10.040;2023-07-20T14:23:15;3.60;;;3.50;;
14665;SDS011;7420;53.574;10.040;2023-07-20T14:25:40;3.80;;;3.70;;
14665;SDS011;7420;53.574;10.040;2023-07-20T14:28:07;3.78;;;3.67;;
14665;SDS011;7420;53.574;10.040;2023-07-20T14:30:32;3.70;;;3.60;;
14665;SDS011;7420;53.574;10.040;2023-07-20T14:32:58;3.60;;;3.50;;
14665;SDS011;7420;53.574;10.040;2023-07-20T14:35:24;3.60;;;3.50;;
14665;SDS011;7420;53.574;10.040;2023-07-20T14:37:49;3.85;;;3.75;;
14665;SDS011;7420;53.574;10.040;2023-07-20T14:40:15;3.70;;;3.60;;
14665;SDS011;7420;53.574;10.040;2023-07-20T14:42:41;3.70;;;3.60;;
14665;SDS011;7420;53.574;10.040;2023-07-20T14:45:06;4.00;;;3.90;;
14665;SDS011;7420;53.574;10.040;2023-07-20T14:47:33;3.80;;;3.70;;
14665;SDS011;7420;53.574;10.040;2023-07-20T14:50:00;3.75;;;3.65;;
14665;SDS011;7420;53.574;10.040;2023-07-20T14:52:30;3.80;;;3.70;;
14665;SDS011;7420;53.574;10.040;2023-07-20T14:54:55;3.88;;;3.78;;
14665;SDS011;7420;53.574;10.040;2023-07-20T14:57:21;3.88;;;3.78;;
14665;SDS011;7420;53.574;10.040;2023-07-20T14:59:49;4.00;;;3.90;;
14665;SDS011;7420;53.574;10.040;2023-07-20T15:02:14;3.85;;;3.75;;
14665;SDS011;7420;53.574;10.040;2023-07-20T15:04:50;3.90;;;3.80;;
14665;SDS011;7420;53.574;10.040;2023-07-20T15:07:17;3.70;;;3.60;;
14665;SDS011;7420;53.574;10.040;2023-07-20T15:09:49;4.00;;;3.90;;
14665;SDS011;7420;53.574;10.040;2023-07-20T15:12:15;3.70;;;3.60;;
14665;SDS011;7420;53.574;10.040;2023-07-20T15:14:41;3.90;;;3.80;;